sensor_id;sensor_type;location;lat;lon;timestamp;pressure;altitude;pressure_sealevel;temperature;humidity
19736;BME280;32064;49.310;8.646;2023-08-06T00:01:12;99669.25;;;21.14;71.97
19736;BME280;32064;49.310;8.646;2023-08-06T00:03:37;99666.16;;;21.11;73.06
19736;BME280;32064;49.310;8.646;2023-08-06T00:06:05;99675.59;;;21.06;72.80
19736;BME280;32064;49.310;8.646;2023-08-06T00:08:30;99674.53;;;21.01;72.52
19736;BME280;32064;49.310;8.646;2023-08-06T00:10:55;99671.38;;;20.97;72.35
19736;BME280;32064;49.310;8.646;2023-08-06T00:15:46;99661.72;;;20.96;73.05
19736;BME280;32064;49.310;8.646;2023-08-06T00:18:11;99655.16;;;20.99;73.00
19736;BME280;32064;49.310;8.646;2023-08-06T00:20:40;99664.38;;;20.96;73.30
19736;BME280;32064;49.310;8.646;2023-08-06T00:23:07;99652.88;;;20.96;72.84
19736;BME280;32064;49.310;8.646;2023-08-06T00:27:57;99643.22;;;20.95;73.31
19736;BME280;32064;49.310;8.646;2023-08-06T00:30:23;99643.56;;;20.92;72.82
19736;BME280;32064;49.310;8.646;2023-08-06T00:32:48;99647.66;;;20.88;73.48
19736;BME280;32064;49.310;8.646;2023-08-06T00:35:14;99643.53;;;20.85;73.15
19736;BME280;32064;49.310;8.646;2023-08-06T00:37:39;99640.84;;;20.85;73.22
19736;BME280;32064;49.310;8.646;2023-08-06T00:40:06;99635.50;;;20.85;73.36
19736;BME280;32064;49.310;8.646;2023-08-06T00:42:32;99623.78;;;20.86;73.73
19736;BME280;32064;49.310;8.646;2023-08-06T00:44:57;99621.94;;;20.87;73.08
19736;BME280;32064;49.310;8.646;2023-08-06T00:47:23;99609.19;;;20.89;73.12
19736;BME280;32064;49.310;8.646;2023-08-06T00:49:48;99621.75;;;20.88;73.06
19736;BME280;32064;49.310;8.646;2023-08-06T00:52:14;99609.19;;;20.89;73.39
19736;BME280;32064;49.310;8.646;2023-08-06T00:54:40;99619.06;;;20.88;73.12
19736;BME280;32064;49.310;8.646;2023-08-06T00:57:07;99629.97;;;20.87;73.22
19736;BME280;32064;49.310;8.646;2023-08-06T00:59:33;99625.44;;;20.87;72.99
19736;BME280;32064;49.310;8.646;2023-08-06T01:01:59;99618.00;;;20.82;72.93
19736;BME280;32064;49.310;8.646;2023-08-06T01:04:24;99618.19;;;20.81;73.17
19736;BME280;32064;49.310;8.646;2023-08-06T01:12:25;99602.72;;;20.76;73.68
19736;BME280;32064;49.310;8.646;2023-08-06T01:17:31;99592.03;;;20.76;73.18
19736;BME280;32064;49.310;8.646;2023-08-06T01:19:57;99584.00;;;20.76;73.32
19736;BME280;32064;49.310;8.646;2023-08-06T01:22:22;99588.16;;;20.79;72.62
19736;BME280;32064;49.310;8.646;2023-08-06T01:24:50;99589.78;;;20.80;73.12
19736;BME280;32064;49.310;8.646;2023-08-06T01:27:28;99574.97;;;20.77;72.73
19736;BME280;32064;49.310;8.646;2023-08-06T01:30:26;99578.28;;;20.79;72.82
19736;BME280;32064;49.310;8.646;2023-08-06T01:32:58;99573.19;;;20.84;73.04
19736;BME280;32064;49.310;8.646;2023-08-06T01:35:25;99567.44;;;20.88;72.86
19736;BME280;32064;49.310;8.646;2023-08-06T01:37:52;99569.94;;;20.89;72.60
19736;BME280;32064;49.310;8.646;2023-08-06T01:40:17;99575.63;;;20.86;72.80
19736;BME280;32064;49.310;8.646;2023-08-06T01:42:42;99567.19;;;20.82;72.31
19736;BME280;32064;49.310;8.646;2023-08-06T01:45:09;99561.66;;;20.84;72.26
19736;BME280;32064;49.310;8.646;2023-08-06T01:47:35;99567.56;;;20.79;72.47
19736;BME280;32064;49.310;8.646;2023-08-06T01:50:01;99557.69;;;20.80;72.17
19736;BME280;32064;49.310;8.646;2023-08-06T01:52:27;99555.41;;;20.77;72.24
19736;BME280;32064;49.310;8.646;2023-08-06T01:54:52;99562.44;;;20.78;72.26
19736;BME280;32064;49.310;8.646;2023-08-06T01:57:18;99559.31;;;20.74;72.55
19736;BME280;32064;49.310;8.646;2023-08-06T01:59:43;99550.84;;;20.71;72.51
19736;BME280;32064;49.310;8.646;2023-08-06T02:02:08;99557.25;;;20.70;71.75
19736;BME280;32064;49.310;8.646;2023-08-06T02:04:34;99559.91;;;20.70;71.66
19736;BME280;32064;49.310;8.646;2023-08-06T02:06:59;99547.75;;;20.67;71.57
19736;BME280;32064;49.310;8.646;2023-08-06T02:09:24;99548.75;;;20.66;71.93
19736;BME280;32064;49.310;8.646;2023-08-06T02:11:50;99548.31;;;20.62;72.12
19736;BME280;32064;49.310;8.646;2023-08-06T02:14:15;99537.00;;;20.60;72.41
19736;BME280;32064;49.310;8.646;2023-08-06T02:16:41;99541.53;;;20.60;71.68
19736;BME280;32064;49.310;8.646;2023-08-06T02:19:06;99537.84;;;20.61;71.90
19736;BME280;32064;49.310;8.646;2023-08-06T02:21:31;99542.97;;;20.62;72.13
19736;BME280;32064;49.310;8.646;2023-08-06T02:23:57;99548.31;;;20.62;71.88
19736;BME280;32064;49.310;8.646;2023-08-06T02:26:22;99549.78;;;20.65;71.33
19736;BME280;32064;49.310;8.646;2023-08-06T02:28:48;99542.81;;;20.64;72.08
19736;BME280;32064;49.310;8.646;2023-08-06T02:31:13;99538.44;;;20.63;72.48
19736;BME280;32064;49.310;8.646;2023-08-06T02:33:39;99537.63;;;20.62;72.03
19736;BME280;32064;49.310;8.646;2023-08-06T02:36:04;99542.16;;;20.62;71.47
19736;BME280;32064;49.310;8.646;2023-08-06T02:38:33;99545.22;;;20.59;71.58
19736;BME280;32064;49.310;8.646;2023-08-06T02:40:58;99543.56;;;20.58;71.25
19736;BME280;32064;49.310;8.646;2023-08-06T02:43:24;99538.41;;;20.56;71.70
19736;BME280;32064;49.310;8.646;2023-08-06T02:45:49;99541.28;;;20.55;71.92
19736;BME280;32064;49.310;8.646;2023-08-06T02:48:14;99539.34;;;20.49;71.18
19736;BME280;32064;49.310;8.646;2023-08-06T02:50:41;99539.16;;;20.50;71.77
19736;BME280;32064;49.310;8.646;2023-08-06T02:53:07;99535.84;;;20.48;71.24
19736;BME280;32064;49.310;8.646;2023-08-06T02:55:33;99543.69;;;20.50;71.12
19736;BME280;32064;49.310;8.646;2023-08-06T02:58:00;99541.00;;;20.50;71.29
19736;BME280;32064;49.310;8.646;2023-08-06T03:00:25;99544.91;;;20.47;71.61
19736;BME280;32064;49.310;8.646;2023-08-06T03:02:51;99546.75;;;20.47;71.66
19736;BME280;32064;49.310;8.646;2023-08-06T03:05:16;99543.03;;;20.48;71.16
19736;BME280;32064;49.310;8.646;2023-08-06T03:07:41;99536.88;;;20.47;71.84
19736;BME280;32064;49.310;8.646;2023-08-06T03:10:07;99527.00;;;20.48;71.68
19736;BME280;32064;49.310;8.646;2023-08-06T03:12:32;99535.84;;;20.48;71.96
19736;BME280;32064;49.310;8.646;2023-08-06T03:14:58;99533.19;;;20.48;71.29
19736;BME280;32064;49.310;8.646;2023-08-06T03:17:23;99522.47;;;20.48;71.63
19736;BME280;32064;49.310;8.646;2023-08-06T03:19:48;99525.97;;;20.49;71.75
19736;BME280;32064;49.310;8.646;2023-08-06T03:22:14;99517.16;;;20.48;71.56
19736;BME280;32064;49.310;8.646;2023-08-06T03:24:39;99525.81;;;20.50;71.45
19736;BME280;32064;49.310;8.646;2023-08-06T03:27:05;99524.13;;;20.49;71.43
19736;BME280;32064;49.310;8.646;2023-08-06T03:29:30;99529.28;;;20.51;72.02
19736;BME280;32064;49.310;8.646;2023-08-06T03:31:56;99519.28;;;20.53;71.73
19736;BME280;32064;49.310;8.646;2023-08-06T03:34:21;99519.88;;;20.55;71.54
19736;BME280;32064;49.310;8.646;2023-08-06T03:36:47;99518.59;;;20.51;71.22
19736;BME280;32064;49.310;8.646;2023-08-06T03:39:12;99516.75;;;20.51;71.63
19736;BME280;32064;49.310;8.646;2023-08-06T03:41:39;99527.91;;;20.55;71.54
19736;BME280;32064;49.310;8.646;2023-08-06T03:44:05;99521.94;;;20.53;71.69
19736;BME280;32064;49.310;8.646;2023-08-06T03:46:30;99520.25;;;20.52;71.52
19736;BME280;32064;49.310;8.646;2023-08-06T03:48:59;99515.94;;;20.51;71.00
19736;BME280;32064;49.310;8.646;2023-08-06T03:51:25;99523.31;;;20.49;70.75
19736;BME280;32064;49.310;8.646;2023-08-06T03:53:50;99526.19;;;20.47;71.14
19736;BME280;32064;49.310;8.646;2023-08-06T03:56:15;99527.00;;;20.48;71.13
19736;BME280;32064;49.310;8.646;2023-08-06T03:58:41;99526.38;;;20.46;70.80
19736;BME280;32064;49.310;8.646;2023-08-06T04:01:06;99530.47;;;20.41;70.34
19736;BME280;32064;49.310;8.646;2023-08-06T04:03:31;99520.97;;;20.39;70.62
19736;BME280;32064;49.310;8.646;2023-08-06T04:05:57;99519.53;;;20.36;70.73
19736;BME280;32064;49.310;8.646;2023-08-06T04:08:22;99526.50;;;20.37;70.73
19736;BME280;32064;49.310;8.646;2023-08-06T04:10:52;99521.13;;;20.31;70.65
19736;BME280;32064;49.310;8.646;2023-08-06T04:13:17;99529.53;;;20.28;70.52
19736;BME280;32064;49.310;8.646;2023-08-06T04:15:43;99529.69;;;20.26;70.36
19736;BME280;32064;49.310;8.646;2023-08-06T04:18:08;99521.25;;;20.23;69.92
19736;BME280;32064;49.310;8.646;2023-08-06T04:20:33;99523.91;;;20.23;70.75
19736;BME280;32064;49.310;8.646;2023-08-06T04:22:59;99525.13;;;20.20;70.90
19736;BME280;32064;49.310;8.646;2023-08-06T04:25:24;99515.09;;;20.22;71.09
19736;BME280;32064;49.310;8.646;2023-08-06T04:27:50;99524.94;;;20.22;70.51
19736;BME280;32064;49.310;8.646;2023-08-06T04:30:15;99523.09;;;20.22;71.09
19736;BME280;32064;49.310;8.646;2023-08-06T04:32:41;99531.69;;;20.17;70.41
19736;BME280;32064;49.310;8.646;2023-08-06T04:35:07;99535.16;;;20.18;70.23
19736;BME280;32064;49.310;8.646;2023-08-06T04:37:34;99525.91;;;20.14;70.90
19736;BME280;32064;49.310;8.646;2023-08-06T04:40:00;99534.72;;;20.14;70.40
19736;BME280;32064;49.310;8.646;2023-08-06T04:42:25;99532.44;;;20.11;70.26
19736;BME280;32064;49.310;8.646;2023-08-06T04:44:51;99539.44;;;20.12;70.58
19736;BME280;32064;49.310;8.646;2023-08-06T04:47:16;99529.97;;;20.10;70.93
19736;BME280;32064;49.310;8.646;2023-08-06T04:49:41;99538.00;;;20.10;70.59
19736;BME280;32064;49.310;8.646;2023-08-06T04:52:07;99540.03;;;20.08;70.23
19736;BME280;32064;49.310;8.646;2023-08-06T04:54:32;99537.72;;;20.05;70.26
19736;BME280;32064;49.310;8.646;2023-08-06T04:56:58;99539.94;;;20.01;70.73
19736;BME280;32064;49.310;8.646;2023-08-06T04:59:23;99539.31;;;19.99;70.83
19736;BME280;32064;49.310;8.646;2023-08-06T05:01:48;99530.09;;;20.02;71.19
19736;BME280;32064;49.310;8.646;2023-08-06T05:04:14;99535.63;;;20.00;70.50
19736;BME280;32064;49.310;8.646;2023-08-06T05:06:39;99530.84;;;19.95;70.71
19736;BME280;32064;49.310;8.646;2023-08-06T05:09:05;99526.97;;;19.98;70.69
19736;BME280;32064;49.310;8.646;2023-08-06T05:11:31;99533.34;;;19.97;70.96
19736;BME280;32064;49.310;8.646;2023-08-06T05:13:56;99534.97;;;19.98;70.37
19736;BME280;32064;49.310;8.646;2023-08-06T05:16:22;99543.84;;;19.99;70.19
19736;BME280;32064;49.310;8.646;2023-08-06T05:18:47;99531.31;;;19.99;71.06
19736;BME280;32064;49.310;8.646;2023-08-06T05:21:13;99533.38;;;20.04;71.20
19736;BME280;32064;49.310;8.646;2023-08-06T05:23:38;99540.56;;;20.03;71.54
19736;BME280;32064;49.310;8.646;2023-08-06T05:26:03;99534.97;;;19.98;71.74
19736;BME280;32064;49.310;8.646;2023-08-06T05:28:29;99529.63;;;19.98;71.41
19736;BME280;32064;49.310;8.646;2023-08-06T05:30:54;99526.78;;;20.00;72.05
19736;BME280;32064;49.310;8.646;2023-08-06T05:33:19;99531.91;;;20.01;71.74
19736;BME280;32064;49.310;8.646;2023-08-06T05:35:45;99533.97;;;19.99;71.68
19736;BME280;32064;49.310;8.646;2023-08-06T05:38:10;99531.59;;;19.89;71.72
19736;BME280;32064;49.310;8.646;2023-08-06T05:40:36;99538.63;;;19.90;72.17
19736;BME280;32064;49.310;8.646;2023-08-06T05:43:01;99530.13;;;19.87;72.27
19736;BME280;32064;49.310;8.646;2023-08-06T05:45:27;99539.44;;;19.91;73.17
19736;BME280;32064;49.310;8.646;2023-08-06T05:47:52;99545.97;;;19.88;72.68
19736;BME280;32064;49.310;8.646;2023-08-06T05:50:19;99541.66;;;19.87;72.95
19736;BME280;32064;49.310;8.646;2023-08-06T05:52:44;99541.03;;;19.85;73.34
19736;BME280;32064;49.310;8.646;2023-08-06T05:55:10;99548.81;;;19.87;73.17
19736;BME280;32064;49.310;8.646;2023-08-06T05:57:35;99547.19;;;19.86;73.54
19736;BME280;32064;49.310;8.646;2023-08-06T06:00:02;99549.03;;;19.85;73.93
19736;BME280;32064;49.310;8.646;2023-08-06T06:02:28;99559.28;;;19.82;73.46
19736;BME280;32064;49.310;8.646;2023-08-06T06:04:53;99549.78;;;19.79;73.75
19736;BME280;32064;49.310;8.646;2023-08-06T06:07:18;99554.09;;;19.80;73.41
19736;BME280;32064;49.310;8.646;2023-08-06T06:09:44;99556.94;;;19.79;73.18
19736;BME280;32064;49.310;8.646;2023-08-06T06:12:09;99560.47;;;19.79;74.01
19736;BME280;32064;49.310;8.646;2023-08-06T06:14:35;99553.47;;;19.78;74.28
19736;BME280;32064;49.310;8.646;2023-08-06T06:17:00;99550.16;;;19.76;73.80
19736;BME280;32064;49.310;8.646;2023-08-06T06:19:26;99556.34;;;19.77;73.89
19736;BME280;32064;49.310;8.646;2023-08-06T06:21:51;99557.31;;;19.76;73.74
19736;BME280;32064;49.310;8.646;2023-08-06T06:24:17;99557.16;;;19.77;73.77
19736;BME280;32064;49.310;8.646;2023-08-06T06:26:42;99564.34;;;19.77;74.10
19736;BME280;32064;49.310;8.646;2023-08-06T06:29:07;99562.88;;;19.74;74.11
19736;BME280;32064;49.310;8.646;2023-08-06T06:31:33;99570.50;;;19.77;73.84
19736;BME280;32064;49.310;8.646;2023-08-06T06:33:58;99570.50;;;19.77;73.59
19736;BME280;32064;49.310;8.646;2023-08-06T06:36:24;99565.34;;;19.76;73.90
19736;BME280;32064;49.310;8.646;2023-08-06T06:38:49;99583.84;;;19.77;74.24
19736;BME280;32064;49.310;8.646;2023-08-06T06:41:14;99576.66;;;19.78;73.81
19736;BME280;32064;49.310;8.646;2023-08-06T06:43:40;99581.19;;;19.77;74.04
19736;BME280;32064;49.310;8.646;2023-08-06T06:46:05;99575.84;;;19.77;73.84
19736;BME280;32064;49.310;8.646;2023-08-06T06:48:32;99570.50;;;19.77;73.25
19736;BME280;32064;49.310;8.646;2023-08-06T06:50:58;99565.16;;;19.77;73.86
19736;BME280;32064;49.310;8.646;2023-08-06T06:53:24;99575.84;;;19.77;74.25
19736;BME280;32064;49.310;8.646;2023-08-06T06:56:10;99580.53;;;19.75;74.62
19736;BME280;32064;49.310;8.646;2023-08-06T06:58:36;99570.50;;;19.77;73.87
19736;BME280;32064;49.310;8.646;2023-08-06T07:01:03;99563.75;;;19.81;74.17
19736;BME280;32064;49.310;8.646;2023-08-06T07:03:29;99567.06;;;19.83;74.49
19736;BME280;32064;49.310;8.646;2023-08-06T07:05:57;99554.00;;;19.88;75.10
19736;BME280;32064;49.310;8.646;2023-08-06T07:08:24;99562.66;;;19.90;74.47
19736;BME280;32064;49.310;8.646;2023-08-06T07:10:49;99562.06;;;19.95;74.45
19736;BME280;32064;49.310;8.646;2023-08-06T07:13:14;99554.88;;;19.95;74.24
19736;BME280;32064;49.310;8.646;2023-08-06T07:15:41;99559.22;;;19.96;74.27
19736;BME280;32064;49.310;8.646;2023-08-06T07:18:07;99556.34;;;19.98;73.96
19736;BME280;32064;49.310;8.646;2023-08-06T07:20:32;99563.97;;;20.01;73.64
19736;BME280;32064;49.310;8.646;2023-08-06T07:22:58;99563.97;;;20.01;73.78
19736;BME280;32064;49.310;8.646;2023-08-06T07:25:24;99565.44;;;20.04;73.66
19736;BME280;32064;49.310;8.646;2023-08-06T07:27:49;99567.72;;;20.07;73.81
19736;BME280;32064;49.310;8.646;2023-08-06T07:30:15;99564.06;;;20.08;74.04
19736;BME280;32064;49.310;8.646;2023-08-06T07:32:40;99560.19;;;20.10;73.70
19736;BME280;32064;49.310;8.646;2023-08-06T07:35:05;99564.31;;;20.13;73.46
19736;BME280;32064;49.310;8.646;2023-08-06T07:37:33;99557.94;;;20.14;73.95
19736;BME280;32064;49.310;8.646;2023-08-06T07:39:58;99568.44;;;20.15;73.86
19736;BME280;32064;49.310;8.646;2023-08-06T07:42:24;99566.59;;;20.16;73.60
19736;BME280;32064;49.310;8.646;2023-08-06T07:44:57;99573.97;;;20.14;73.20
19736;BME280;32064;49.310;8.646;2023-08-06T07:47:23;99578.13;;;20.16;73.77
19736;BME280;32064;49.310;8.646;2023-08-06T07:49:49;99566.78;;;20.14;73.77
19736;BME280;32064;49.310;8.646;2023-08-06T07:52:14;99571.31;;;20.14;74.07
19736;BME280;32064;49.310;8.646;2023-08-06T07:54:40;99567.00;;;20.13;74.07
19736;BME280;32064;49.310;8.646;2023-08-06T07:57:05;99576.00;;;20.12;74.19
19736;BME280;32064;49.310;8.646;2023-08-06T07:59:31;99570.47;;;20.13;74.44
19736;BME280;32064;49.310;8.646;2023-08-06T08:01:56;99575.19;;;20.11;74.82
19736;BME280;32064;49.310;8.646;2023-08-06T08:04:22;99577.66;;;20.13;75.18
19736;BME280;32064;49.310;8.646;2023-08-06T08:06:47;99571.31;;;20.14;75.45
19736;BME280;32064;49.310;8.646;2023-08-06T08:09:13;99576.25;;;20.17;75.73
19736;BME280;32064;49.310;8.646;2023-08-06T08:11:39;99573.41;;;20.18;75.76
19736;BME280;32064;49.310;8.646;2023-08-06T08:14:05;99566.84;;;20.21;75.22
19736;BME280;32064;49.310;8.646;2023-08-06T08:16:30;99570.81;;;20.25;75.51
19736;BME280;32064;49.310;8.646;2023-08-06T08:18:56;99568.13;;;20.25;75.96
19736;BME280;32064;49.310;8.646;2023-08-06T08:21:21;99566.09;;;20.27;75.55
19736;BME280;32064;49.310;8.646;2023-08-06T08:23:47;99564.31;;;20.34;76.54
19736;BME280;32064;49.310;8.646;2023-08-06T08:26:12;99568.69;;;20.42;76.52
19736;BME280;32064;49.310;8.646;2023-08-06T08:28:37;99569.94;;;20.46;77.22
19736;BME280;32064;49.310;8.646;2023-08-06T08:31:03;99560.34;;;20.52;76.67
19736;BME280;32064;49.310;8.646;2023-08-06T08:33:28;99561.25;;;20.59;77.64
19736;BME280;32064;49.310;8.646;2023-08-06T08:35:54;99558.00;;;20.63;77.08
19736;BME280;32064;49.310;8.646;2023-08-06T08:38:19;99550.59;;;20.66;77.61
19736;BME280;32064;49.310;8.646;2023-08-06T08:40:51;99557.84;;;20.72;77.88
19736;BME280;32064;49.310;8.646;2023-08-06T08:43:18;99551.75;;;20.78;77.06
19736;BME280;32064;49.310;8.646;2023-08-06T08:45:50;99548.03;;;20.79;77.41
19736;BME280;32064;49.310;8.646;2023-08-06T08:48:16;99548.72;;;20.88;76.74
19736;BME280;32064;49.310;8.646;2023-08-06T08:50:44;99548.53;;;20.89;76.39
19736;BME280;32064;49.310;8.646;2023-08-06T08:53:11;99546.84;;;20.88;76.53
19736;BME280;32064;49.310;8.646;2023-08-06T08:55:37;99539.91;;;20.94;76.17
19736;BME280;32064;49.310;8.646;2023-08-06T08:58:03;99541.19;;;20.98;75.75
19736;BME280;32064;49.310;8.646;2023-08-06T09:00:29;99555.41;;;21.05;76.04
19736;BME280;32064;49.310;8.646;2023-08-06T09:02:55;99550.28;;;21.10;75.64
19736;BME280;32064;49.310;8.646;2023-08-06T09:05:23;99544.72;;;21.12;75.63
19736;BME280;32064;49.310;8.646;2023-08-06T09:07:49;99544.38;;;21.15;75.60
19736;BME280;32064;49.310;8.646;2023-08-06T09:10:16;99552.38;;;21.15;75.71
19736;BME280;32064;49.310;8.646;2023-08-06T09:12:45;99543.72;;;21.13;75.06
19736;BME280;32064;49.310;8.646;2023-08-06T09:15:11;99549.06;;;21.13;75.25
19736;BME280;32064;49.310;8.646;2023-08-06T09:17:36;99544.31;;;21.08;74.56
19736;BME280;32064;49.310;8.646;2023-08-06T09:20:12;99554.00;;;21.09;74.40
19736;BME280;32064;49.310;8.646;2023-08-06T09:22:37;99553.41;;;21.14;75.12
19736;BME280;32064;49.310;8.646;2023-08-06T09:25:03;99546.03;;;21.22;74.67
19736;BME280;32064;49.310;8.646;2023-08-06T09:27:34;99550.81;;;21.34;74.20
19736;BME280;32064;49.310;8.646;2023-08-06T09:30:00;99551.09;;;21.39;74.14
19736;BME280;32064;49.310;8.646;2023-08-06T09:32:25;99545.16;;;21.50;73.62
19736;BME280;32064;49.310;8.646;2023-08-06T09:34:55;99543.97;;;21.59;73.61
19736;BME280;32064;49.310;8.646;2023-08-06T09:37:21;99547.28;;;21.68;73.25
19736;BME280;32064;49.310;8.646;2023-08-06T09:39:47;99545.81;;;21.65;72.95
19736;BME280;32064;49.310;8.646;2023-08-06T09:42:14;99545.00;;;21.65;73.05
19736;BME280;32064;49.310;8.646;2023-08-06T09:44:40;99543.38;;;21.64;72.89
19736;BME280;32064;49.310;8.646;2023-08-06T09:47:06;99547.25;;;21.61;73.26
19736;BME280;32064;49.310;8.646;2023-08-06T09:52:00;99545.34;;;21.48;73.35
19736;BME280;32064;49.310;8.646;2023-08-06T09:54:26;99544.94;;;21.45;74.57
19736;BME280;32064;49.310;8.646;2023-08-06T09:56:56;99549.22;;;21.39;74.47
19736;BME280;32064;49.310;8.646;2023-08-06T09:59:23;99547.72;;;21.30;74.40
19736;BME280;32064;49.310;8.646;2023-08-06T10:01:48;99564.97;;;21.21;75.05
19736;BME280;32064;49.310;8.646;2023-08-06T10:04:14;99564.69;;;21.09;74.99
19736;BME280;32064;49.310;8.646;2023-08-06T10:06:42;99557.03;;;21.06;74.46
19736;BME280;32064;49.310;8.646;2023-08-06T10:09:08;99559.50;;;21.01;74.67
19736;BME280;32064;49.310;8.646;2023-08-06T10:11:36;99562.56;;;20.98;75.46
19736;BME280;32064;49.310;8.646;2023-08-06T10:14:19;99572.59;;;20.89;74.88
19736;BME280;32064;49.310;8.646;2023-08-06T10:16:47;99564.56;;;20.89;75.19
19736;BME280;32064;49.310;8.646;2023-08-06T10:19:13;99564.94;;;20.86;74.74
19736;BME280;32064;49.310;8.646;2023-08-06T10:21:40;99571.31;;;20.85;74.71
19736;BME280;32064;49.310;8.646;2023-08-06T10:24:09;99559.16;;;20.82;73.78
19736;BME280;32064;49.310;8.646;2023-08-06T10:26:35;99564.50;;;20.82;74.23
19736;BME280;32064;49.310;8.646;2023-08-06T10:29:01;99569.03;;;20.82;75.08
19736;BME280;32064;49.310;8.646;2023-08-06T10:31:55;99564.91;;;20.79;74.07
19736;BME280;32064;49.310;8.646;2023-08-06T10:34:23;99565.94;;;20.78;74.07
19736;BME280;32064;49.310;8.646;2023-08-06T10:36:49;99573.72;;;20.73;74.71
19736;BME280;32064;49.310;8.646;2023-08-06T10:39:14;99582.53;;;20.74;75.09
19736;BME280;32064;49.310;8.646;2023-08-06T10:41:42;99580.09;;;20.72;74.06
19736;BME280;32064;49.310;8.646;2023-08-06T10:44:09;99580.44;;;20.69;74.67
19736;BME280;32064;49.310;8.646;2023-08-06T10:46:36;99592.00;;;20.70;74.46
19736;BME280;32064;49.310;8.646;2023-08-06T10:49:03;99590.53;;;20.67;74.56
19736;BME280;32064;49.310;8.646;2023-08-06T10:51:29;99602.44;;;20.65;74.44
19736;BME280;32064;49.310;8.646;2023-08-06T10:53:55;99596.00;;;20.59;74.97
19736;BME280;32064;49.310;8.646;2023-08-06T10:56:24;99606.88;;;20.57;76.11
19736;BME280;32064;49.310;8.646;2023-08-06T10:58:55;99609.94;;;20.54;75.17
19736;BME280;32064;49.310;8.646;2023-08-06T11:01:23;99602.75;;;20.55;75.10
19736;BME280;32064;49.310;8.646;2023-08-06T11:03:49;99605.63;;;20.53;75.96
19736;BME280;32064;49.310;8.646;2023-08-06T11:06:22;99609.22;;;20.46;75.35
19736;BME280;32064;49.310;8.646;2023-08-06T11:08:50;99610.25;;;20.45;75.14
19736;BME280;32064;49.310;8.646;2023-08-06T11:11:16;99609.97;;;20.39;75.00
19736;BME280;32064;49.310;8.646;2023-08-06T11:13:49;99617.34;;;20.37;75.75
19736;BME280;32064;49.310;8.646;2023-08-06T11:16:20;99625.38;;;20.37;75.74
19736;BME280;32064;49.310;8.646;2023-08-06T11:18:47;99627.44;;;20.35;75.30
19736;BME280;32064;49.310;8.646;2023-08-06T11:21:13;99630.91;;;20.36;75.05
19736;BME280;32064;49.310;8.646;2023-08-06T11:23:38;99631.75;;;20.36;75.57
19736;BME280;32064;49.310;8.646;2023-08-06T11:26:04;99638.47;;;20.32;74.79
19736;BME280;32064;49.310;8.646;2023-08-06T11:28:30;99633.72;;;20.28;74.73
19736;BME280;32064;49.310;8.646;2023-08-06T11:30:55;99641.06;;;20.26;74.64
19736;BME280;32064;49.310;8.646;2023-08-06T11:33:25;99649.47;;;20.23;74.01
19736;BME280;32064;49.310;8.646;2023-08-06T11:35:51;99655.63;;;20.23;73.85
19736;BME280;32064;49.310;8.646;2023-08-06T11:38:17;99654.00;;;20.22;74.65
19736;BME280;32064;49.310;8.646;2023-08-06T11:40:47;99657.44;;;20.16;73.78
19736;BME280;32064;49.310;8.646;2023-08-06T11:43:13;99666.06;;;20.18;74.66
19736;BME280;32064;49.310;8.646;2023-08-06T11:45:39;99672.59;;;20.15;74.54
19736;BME280;32064;49.310;8.646;2023-08-06T11:48:05;99674.81;;;20.12;74.49
19736;BME280;32064;49.310;8.646;2023-08-06T11:50:31;99680.75;;;20.07;74.05
19736;BME280;32064;49.310;8.646;2023-08-06T11:52:58;99686.25;;;20.06;74.50
19736;BME280;32064;49.310;8.646;2023-08-06T11:55:24;99685.81;;;20.02;74.23
19736;BME280;32064;49.310;8.646;2023-08-06T11:57:50;99694.19;;;19.99;73.80
19736;BME280;32064;49.310;8.646;2023-08-06T12:00:16;99691.91;;;19.96;73.16
19736;BME280;32064;49.310;8.646;2023-08-06T12:02:48;99701.19;;;20.00;73.24
19736;BME280;32064;49.310;8.646;2023-08-06T12:05:17;99702.84;;;20.01;72.89
19736;BME280;32064;49.310;8.646;2023-08-06T12:07:48;99703.03;;;20.00;72.87
19736;BME280;32064;49.310;8.646;2023-08-06T12:10:15;99702.00;;;20.01;72.62
19736;BME280;32064;49.310;8.646;2023-08-06T12:12:41;99711.69;;;20.02;72.19
19736;BME280;32064;49.310;8.646;2023-08-06T12:15:08;99724.69;;;20.05;72.81
19736;BME280;32064;49.310;8.646;2023-08-06T12:17:35;99726.53;;;20.04;71.74
19736;BME280;32064;49.310;8.646;2023-08-06T12:20:03;99723.19;;;20.02;71.83
19736;BME280;32064;49.310;8.646;2023-08-06T12:22:30;99718.69;;;20.03;71.72
19736;BME280;32064;49.310;8.646;2023-08-06T12:25:08;99736.56;;;20.02;71.81
19736;BME280;32064;49.310;8.646;2023-08-06T12:27:37;99739.22;;;20.02;71.25
19736;BME280;32064;49.310;8.646;2023-08-06T12:30:04;99731.00;;;20.04;71.68
19736;BME280;32064;49.310;8.646;2023-08-06T12:32:29;99743.38;;;20.05;72.09
19736;BME280;32064;49.310;8.646;2023-08-06T12:34:55;99737.00;;;20.06;71.73
19736;BME280;32064;49.310;8.646;2023-08-06T12:37:21;99749.34;;;20.07;72.37
19736;BME280;32064;49.310;8.646;2023-08-06T12:39:46;99762.06;;;20.05;71.94
19736;BME280;32064;49.310;8.646;2023-08-06T12:42:12;99746.41;;;20.02;71.64
19736;BME280;32064;49.310;8.646;2023-08-06T12:44:37;99760.75;;;20.01;71.47
19736;BME280;32064;49.310;8.646;2023-08-06T12:47:03;99767.66;;;19.95;71.90
19736;BME280;32064;49.310;8.646;2023-08-06T12:49:28;99764.38;;;19.93;72.19
19736;BME280;32064;49.310;8.646;2023-08-06T12:51:58;99773.75;;;19.89;72.14
19736;BME280;32064;49.310;8.646;2023-08-06T12:54:25;99784.25;;;19.90;72.30
19736;BME280;32064;49.310;8.646;2023-08-06T12:56:51;99790.41;;;19.91;72.79
19736;BME280;32064;49.310;8.646;2023-08-06T12:59:17;99779.47;;;19.86;71.81
19736;BME280;32064;49.310;8.646;2023-08-06T13:01:43;99779.28;;;19.87;72.49
19736;BME280;32064;49.310;8.646;2023-08-06T13:04:09;99783.78;;;19.87;72.12
19736;BME280;32064;49.310;8.646;2023-08-06T13:06:36;99793.91;;;19.91;72.02
19736;BME280;32064;49.310;8.646;2023-08-06T13:09:03;99798.22;;;19.92;72.18
19736;BME280;32064;49.310;8.646;2023-08-06T13:11:30;99794.38;;;19.95;71.93